createdAt,value
2018-03-20T00:02:06.584Z,21.30
2018-03-20T00:04:35.902Z,21.20
2018-03-20T00:07:05.329Z,21.20
2018-03-20T00:09:34.669Z,21.00
2018-03-20T00:12:05.362Z,20.90
2018-03-20T00:14:36.506Z,20.80
2018-03-20T00:17:07.828Z,20.70
2018-03-20T00:19:37.277Z,20.60
2018-03-20T00:22:06.579Z,20.50
2018-03-20T00:24:36.063Z,20.60
2018-03-20T00:27:06.350Z,20.40
2018-03-20T00:29:35.807Z,20.40
2018-03-20T00:32:05.813Z,20.30
2018-03-20T00:34:35.232Z,20.30
2018-03-20T00:37:04.772Z,20.20
2018-03-20T00:39:34.465Z,20.20
2018-03-20T00:42:05.318Z,20.20
2018-03-20T00:44:34.784Z,20.00
2018-03-20T00:47:08.905Z,19.90
2018-03-20T00:49:43.940Z,19.90
2018-03-20T00:52:13.914Z,19.90
2018-03-20T00:54:51.150Z,19.80
2018-03-20T00:57:21.625Z,19.80
2018-03-20T00:59:52.230Z,19.70
2018-03-20T01:05:43.072Z,19.70
2018-03-20T01:08:19.181Z,19.60
2018-03-20T01:10:48.603Z,19.50
2018-03-20T01:13:21.416Z,19.50
2018-03-20T01:15:51.434Z,19.40
2018-03-20T01:18:29.029Z,19.40
2018-03-20T01:21:14.951Z,19.40
2018-03-20T01:26:39.657Z,19.50
2018-03-20T01:29:16.670Z,19.50
2018-03-20T01:31:46.099Z,19.40
2018-03-20T01:34:17.268Z,19.40
2018-03-20T01:36:48.753Z,19.40
2018-03-20T01:39:22.384Z,19.40
2018-03-20T01:41:51.800Z,19.40
2018-03-20T01:44:21.148Z,19.50
2018-03-20T01:46:50.514Z,19.40
2018-03-20T01:49:20.633Z,19.40
2018-03-20T01:55:46.921Z,19.30
2018-03-20T01:58:16.631Z,19.30
2018-03-20T02:04:08.081Z,19.30
2018-03-20T02:06:38.793Z,19.30
2018-03-20T02:09:09.117Z,19.30
2018-03-20T02:11:39.917Z,19.20
2018-03-20T02:14:11.663Z,19.20
2018-03-20T02:16:41.184Z,19.10
2018-03-20T02:19:11.642Z,19.00
2018-03-20T02:21:42.396Z,18.90
2018-03-20T02:24:32.150Z,18.90
2018-03-20T02:36:58.722Z,18.60
2018-03-20T02:39:28.026Z,18.50
2018-03-20T02:44:36.153Z,18.50
2018-03-20T02:49:52.601Z,18.40
2018-03-20T02:52:26.194Z,18.40
2018-03-20T02:54:56.303Z,18.30
2018-03-20T02:57:30.308Z,18.30
2018-03-20T03:00:11.498Z,18.30
2018-03-20T03:02:49.268Z,18.30
2018-03-20T03:05:34.440Z,18.30
2018-03-20T03:08:05.054Z,18.30
2018-03-20T03:16:25.457Z,18.20
2018-03-20T03:18:59.458Z,18.10
2018-03-20T03:21:29.691Z,18.10
2018-03-20T03:23:59.037Z,18.10
2018-03-20T03:26:28.442Z,18.10
2018-03-20T03:28:57.706Z,18.00
2018-03-20T03:31:27.163Z,18.00
2018-03-20T03:33:57.466Z,18.00
2018-03-20T03:36:32.399Z,18.00
2018-03-20T03:39:01.782Z,18.10
2018-03-20T03:41:31.133Z,18.00
2018-03-20T03:44:00.579Z,18.00
2018-03-20T03:46:31.673Z,18.00
2018-03-20T03:49:02.025Z,18.00
2018-03-20T03:51:31.374Z,18.00
2018-03-20T03:54:00.745Z,18.00
2018-03-20T03:56:31.705Z,18.00
2018-03-20T03:59:02.011Z,18.00
2018-03-20T04:01:31.296Z,18.10
2018-03-20T04:04:01.496Z,18.10
2018-03-20T04:06:30.861Z,18.10
2018-03-20T04:09:00.204Z,18.20
2018-03-20T04:11:29.685Z,18.20
2018-03-20T04:13:59.206Z,18.30
2018-03-20T04:16:28.420Z,18.30
2018-03-20T04:18:57.944Z,18.40
2018-03-20T04:21:32.945Z,18.50
2018-03-20T04:24:06.982Z,18.50
2018-03-20T04:26:36.260Z,18.40
2018-03-20T04:29:06.532Z,18.50
2018-03-20T04:31:36.053Z,18.40
2018-03-20T04:34:05.431Z,18.60
2018-03-20T04:36:34.779Z,18.50
2018-03-20T04:39:04.518Z,18.50
2018-03-20T04:41:33.989Z,18.50
2018-03-20T04:47:24.741Z,18.50
2018-03-20T04:49:54.363Z,18.40
2018-03-20T04:52:24.350Z,18.40
2018-03-20T04:54:54.026Z,18.40
2018-03-20T04:57:23.647Z,18.50
2018-03-20T04:59:53.339Z,18.50
2018-03-20T05:05:22.299Z,18.60
2018-03-20T05:07:52.712Z,18.60
2018-03-20T05:10:22.348Z,18.60
2018-03-20T05:12:52.500Z,18.60
2018-03-20T05:15:22.602Z,18.50
2018-03-20T05:18:02.011Z,18.50
2018-03-20T05:20:53.034Z,18.60
2018-03-20T05:23:27.851Z,18.60
2018-03-20T05:29:28.435Z,18.60
2018-03-20T05:31:58.083Z,18.60
2018-03-20T05:34:27.975Z,18.50
2018-03-20T05:36:58.087Z,18.60
2018-03-20T05:39:28.560Z,18.60
2018-03-20T05:41:58.231Z,18.50
2018-03-20T05:44:27.965Z,18.60
2018-03-20T05:47:16.918Z,18.60
2018-03-20T05:49:52.450Z,18.50
2018-03-20T05:52:25.461Z,18.50
2018-03-20T05:54:55.163Z,18.50
2018-03-20T05:57:24.649Z,18.40
2018-03-20T05:59:55.133Z,18.40
2018-03-20T06:02:25.783Z,18.40
2018-03-20T06:04:55.307Z,18.40
2018-03-20T06:07:26.155Z,18.40
2018-03-20T06:09:56.643Z,18.30
2018-03-20T06:12:27.001Z,18.20
2018-03-20T06:14:57.550Z,18.20
2018-03-20T06:17:27.031Z,18.20
2018-03-20T06:19:58.243Z,18.10
2018-03-20T06:22:27.725Z,18.10
2018-03-20T06:24:57.785Z,18.20
2018-03-20T06:27:27.767Z,18.20
2018-03-20T06:29:57.235Z,18.20
2018-03-20T06:32:26.952Z,18.40
2018-03-20T06:34:56.465Z,18.50
2018-03-20T06:37:28.732Z,18.50
2018-03-20T06:39:58.245Z,18.50
2018-03-20T06:42:27.721Z,18.40
2018-03-20T06:44:58.037Z,18.60
2018-03-20T06:47:35.277Z,18.50
2018-03-20T06:50:04.946Z,18.60
2018-03-20T06:52:35.182Z,18.50
2018-03-20T06:55:04.810Z,18.50
2018-03-20T06:57:34.303Z,18.50
2018-03-20T07:00:03.812Z,18.50
2018-03-20T07:02:33.401Z,18.40
2018-03-20T07:05:02.987Z,18.30
2018-03-20T07:07:32.525Z,18.40
2018-03-20T07:10:02.071Z,18.40
2018-03-20T07:12:31.595Z,18.30
2018-03-20T07:15:01.044Z,18.20
2018-03-20T07:17:30.742Z,18.10
2018-03-20T07:20:00.225Z,18.00
2018-03-20T07:22:29.783Z,18.00
2018-03-20T07:24:59.684Z,18.00
2018-03-20T07:27:29.175Z,17.90
2018-03-20T07:29:59.514Z,17.80
2018-03-20T07:32:29.018Z,17.80
2018-03-20T07:34:58.563Z,17.80
2018-03-20T07:37:28.165Z,17.80
2018-03-20T07:39:57.711Z,17.70
2018-03-20T07:42:28.059Z,17.60
2018-03-20T07:44:58.858Z,17.60
2018-03-20T07:47:28.464Z,17.80
2018-03-20T07:49:57.971Z,17.70
2018-03-20T07:55:48.505Z,17.70
2018-03-20T07:58:17.971Z,17.70
2018-03-20T08:00:47.463Z,17.60
2018-03-20T08:06:49.060Z,17.40
2018-03-20T08:09:18.908Z,17.40
2018-03-20T08:11:48.927Z,17.40
2018-03-20T08:14:19.764Z,17.40
2018-03-20T08:20:20.570Z,17.30
2018-03-20T08:23:28.338Z,17.40
2018-03-20T08:25:58.464Z,17.40
2018-03-20T08:28:27.770Z,17.40
2018-03-20T08:30:57.202Z,17.40
2018-03-20T08:33:26.642Z,17.40
2018-03-20T08:35:55.940Z,17.40
2018-03-20T08:38:25.359Z,17.50
2018-03-20T08:40:54.707Z,17.50
2018-03-20T08:46:45.362Z,17.40
2018-03-20T08:49:14.908Z,17.20
2018-03-20T08:51:44.533Z,17.20
2018-03-20T08:54:14.123Z,17.10
2018-03-20T08:56:43.646Z,17.20
2018-03-20T08:59:13.209Z,17.20
2018-03-20T09:01:42.911Z,17.20
2018-03-20T09:04:12.489Z,17.20
2018-03-20T09:06:42.011Z,17.20
2018-03-20T09:09:11.887Z,17.20
2018-03-20T09:11:41.440Z,17.10
2018-03-20T09:14:11.054Z,17.00
2018-03-20T09:16:40.643Z,17.10
2018-03-20T09:19:10.207Z,17.10
2018-03-20T09:21:40.577Z,17.20
2018-03-20T09:27:31.772Z,17.20
2018-03-20T09:33:34.158Z,17.10
2018-03-20T09:36:51.750Z,17.10
2018-03-20T09:39:21.537Z,17.00
2018-03-20T09:41:52.173Z,17.00
2018-03-20T09:44:22.012Z,16.90
2018-03-20T09:46:51.770Z,16.80
2018-03-20T09:49:22.483Z,16.80
2018-03-20T09:51:52.425Z,16.70
2018-03-20T09:54:22.253Z,16.60
2018-03-20T09:56:52.049Z,16.70
2018-03-20T09:59:22.197Z,16.60
2018-03-20T10:01:52.051Z,16.60
2018-03-20T10:04:22.015Z,16.60
2018-03-20T10:06:51.573Z,16.60
2018-03-20T10:09:22.133Z,16.60
2018-03-20T10:11:52.518Z,16.50
2018-03-20T10:14:22.468Z,16.60
2018-03-20T10:16:52.263Z,16.50
2018-03-20T10:19:22.197Z,16.50
2018-03-20T10:21:51.989Z,16.50
2018-03-20T10:24:21.382Z,16.50
2018-03-20T10:26:51.399Z,16.40
2018-03-20T10:29:21.202Z,16.40
2018-03-20T10:31:51.218Z,16.40
2018-03-20T10:34:21.027Z,16.40
2018-03-20T10:36:50.970Z,16.40
2018-03-20T10:39:20.788Z,16.30
2018-03-20T10:41:51.020Z,16.30
2018-03-20T10:44:21.970Z,16.30
2018-03-20T10:46:52.315Z,16.30
2018-03-20T10:49:22.344Z,16.30
2018-03-20T10:51:52.228Z,16.30
2018-03-20T10:54:22.178Z,16.30
2018-03-20T10:56:52.557Z,16.30
2018-03-20T10:59:22.317Z,16.30
2018-03-20T11:01:52.472Z,16.30
2018-03-20T11:04:22.486Z,16.30
2018-03-20T11:06:52.458Z,16.30
2018-03-20T11:09:23.937Z,16.20
2018-03-20T11:11:53.879Z,16.20
2018-03-20T11:14:24.686Z,16.20
2018-03-20T11:16:55.127Z,16.20
2018-03-20T11:19:25.032Z,16.20
2018-03-20T11:21:55.150Z,16.20
2018-03-20T11:24:24.573Z,16.20
2018-03-20T11:26:55.301Z,16.20
2018-03-20T11:29:25.567Z,16.30
2018-03-20T11:31:55.781Z,16.20
2018-03-20T11:34:26.439Z,16.20
2018-03-20T11:36:57.158Z,16.10
2018-03-20T11:39:27.087Z,16.10
2018-03-20T11:41:57.639Z,16.10
2018-03-20T11:44:27.645Z,16.10
2018-03-20T11:46:57.573Z,16.10
2018-03-20T11:49:28.121Z,16.20
2018-03-20T11:51:58.010Z,16.20
2018-03-20T11:54:28.393Z,16.20
2018-03-20T12:00:18.426Z,16.30
2018-03-20T12:02:47.826Z,16.30
2018-03-20T12:05:17.132Z,16.40
2018-03-20T12:07:56.147Z,16.40
2018-03-20T12:10:26.516Z,16.50
2018-03-20T12:12:55.851Z,16.60
2018-03-20T12:15:25.602Z,16.50
2018-03-20T12:17:54.997Z,16.50
2018-03-20T12:20:24.389Z,16.40
2018-03-20T12:22:53.793Z,16.50
2018-03-20T12:25:23.336Z,16.50
2018-03-20T12:27:53.723Z,16.60
2018-03-20T12:32:58.273Z,16.60
2018-03-20T12:39:03.249Z,16.50
2018-03-20T12:41:32.656Z,16.50
2018-03-20T12:44:02.749Z,16.50
2018-03-20T12:46:34.275Z,16.50
2018-03-20T12:49:09.147Z,16.50
2018-03-20T12:51:38.549Z,16.60
2018-03-20T12:54:08.056Z,16.60
2018-03-20T12:56:37.655Z,16.60
2018-03-20T12:59:08.617Z,16.60
2018-03-20T13:04:18.523Z,16.80
2018-03-20T13:06:47.956Z,16.80
2018-03-20T13:09:17.639Z,16.80
2018-03-20T13:11:47.454Z,16.90
2018-03-20T13:14:16.882Z,16.90
2018-03-20T13:16:46.197Z,17.00
2018-03-20T13:19:16.384Z,17.10
2018-03-20T13:21:47.351Z,17.00
2018-03-20T13:24:18.823Z,17.20
2018-03-20T13:26:48.266Z,17.30
2018-03-20T13:29:20.458Z,17.40
2018-03-20T13:31:58.923Z,17.60
2018-03-20T13:34:28.503Z,17.60
2018-03-20T13:36:59.056Z,17.70
2018-03-20T13:39:28.927Z,17.70
2018-03-20T13:41:58.823Z,17.80
2018-03-20T13:44:29.962Z,17.90
2018-03-20T13:46:59.255Z,17.90
2018-03-20T13:49:28.683Z,18.00
2018-03-20T13:51:58.799Z,18.10
2018-03-20T13:54:29.042Z,18.20
2018-03-20T13:56:58.525Z,18.20
2018-03-20T13:59:27.897Z,18.30
2018-03-20T14:01:57.304Z,18.40
2018-03-20T14:04:30.349Z,18.50
2018-03-20T14:07:00.452Z,18.90
2018-03-20T14:09:30.587Z,18.80
2018-03-20T14:11:59.979Z,19.20
2018-03-20T14:14:29.362Z,19.60
2018-03-20T14:16:58.743Z,20.20
2018-03-20T14:19:34.212Z,21.00
2018-03-20T14:22:03.444Z,22.10
2018-03-20T14:24:32.957Z,22.30
2018-03-20T14:27:04.026Z,23.10
2018-03-20T14:29:33.434Z,23.00
2018-03-20T14:32:02.728Z,22.50
2018-03-20T14:34:32.095Z,22.40
2018-03-20T14:37:01.494Z,22.60
2018-03-20T14:39:31.452Z,22.90
2018-03-20T14:42:01.309Z,23.00
2018-03-20T14:47:52.724Z,22.20
2018-03-20T14:50:23.288Z,22.40
2018-03-20T14:52:53.061Z,22.40
2018-03-20T14:55:22.885Z,22.90
2018-03-20T14:57:55.147Z,23.50
2018-03-20T15:00:25.678Z,23.60
2018-03-20T15:02:57.225Z,24.80
2018-03-20T15:05:27.840Z,23.80
2018-03-20T15:07:58.949Z,23.80
2018-03-20T15:10:28.821Z,24.60
2018-03-20T15:12:58.628Z,24.70
2018-03-20T15:15:28.971Z,24.20
2018-03-20T15:18:01.945Z,23.40
2018-03-20T15:20:31.739Z,23.40
2018-03-20T15:23:03.983Z,23.30
2018-03-20T15:25:33.785Z,22.90
2018-03-20T15:28:05.227Z,23.50
2018-03-20T15:30:35.959Z,23.80
2018-03-20T15:33:05.787Z,23.90
2018-03-20T15:35:35.553Z,23.80
2018-03-20T15:38:05.469Z,23.40
2018-03-20T15:40:35.214Z,23.70
2018-03-20T15:43:05.512Z,23.80
2018-03-20T15:45:35.704Z,23.90
2018-03-20T15:48:21.980Z,23.80
2018-03-20T15:50:54.176Z,23.80
2018-03-20T15:53:25.742Z,24.30
2018-03-20T15:55:56.778Z,24.30
2018-03-20T15:58:26.629Z,24.80
2018-03-20T16:00:56.419Z,25.10
2018-03-20T16:03:30.875Z,25.90
2018-03-20T16:06:01.796Z,25.80
2018-03-20T16:08:31.915Z,25.00
2018-03-20T16:11:03.269Z,24.30
2018-03-20T16:13:35.450Z,24.20
2018-03-20T16:16:05.729Z,24.20
2018-03-20T16:18:35.484Z,24.00
2018-03-20T16:21:07.832Z,23.70
2018-03-20T16:23:39.833Z,23.70
2018-03-20T16:26:09.957Z,23.70
2018-03-20T16:28:40.021Z,23.60
2018-03-20T16:31:10.183Z,23.90
2018-03-20T16:33:40.808Z,23.90
2018-03-20T16:36:12.464Z,24.50
2018-03-20T16:38:42.856Z,24.50
2018-03-20T16:41:13.546Z,24.80
2018-03-20T16:43:43.519Z,25.20
2018-03-20T16:46:13.569Z,25.20
2018-03-20T16:49:31.156Z,25.00
2018-03-20T16:52:00.613Z,24.60
2018-03-20T16:57:51.674Z,25.20
2018-03-20T17:00:21.255Z,25.60
2018-03-20T17:02:53.172Z,26.20
2018-03-20T17:05:24.009Z,27.00
2018-03-20T17:07:57.264Z,27.20
2018-03-20T17:10:26.770Z,27.50
2018-03-20T17:12:57.095Z,26.40
2018-03-20T17:15:28.685Z,25.80
2018-03-20T17:21:20.323Z,26.80
2018-03-20T17:23:50.052Z,27.60
2018-03-20T17:29:52.224Z,28.60
2018-03-20T17:32:21.491Z,27.50
2018-03-20T17:34:51.226Z,28.20
2018-03-20T17:37:21.852Z,28.90
2018-03-20T17:39:51.177Z,29.10
2018-03-20T17:42:21.298Z,29.50
2018-03-20T17:44:51.422Z,29.70
2018-03-20T17:47:21.068Z,29.60
2018-03-20T17:49:50.411Z,29.50
2018-03-20T17:52:19.859Z,29.70
2018-03-20T17:54:49.238Z,29.60
2018-03-20T17:57:19.521Z,29.90
2018-03-20T17:59:48.911Z,29.80
2018-03-20T18:02:18.802Z,29.80
2018-03-20T18:04:48.060Z,30.00
2018-03-20T18:07:17.525Z,29.40
2018-03-20T18:09:49.578Z,28.60
2018-03-20T18:12:19.757Z,28.40
2018-03-20T18:14:49.108Z,28.30
2018-03-20T18:17:20.058Z,29.60
2018-03-20T18:19:49.824Z,29.50
2018-03-20T18:22:19.225Z,29.60
2018-03-20T18:24:48.774Z,29.70
2018-03-20T18:27:18.130Z,29.80
2018-03-20T18:29:47.727Z,30.00
2018-03-20T18:32:17.330Z,30.10
2018-03-20T18:34:47.360Z,30.10
2018-03-20T18:37:18.791Z,30.60
2018-03-20T18:39:48.365Z,30.60
2018-03-20T18:42:19.314Z,30.50
2018-03-20T18:44:48.973Z,30.40
2018-03-20T18:47:18.459Z,30.80
2018-03-20T18:49:47.788Z,30.60
2018-03-20T18:52:18.101Z,30.80
2018-03-20T18:54:47.468Z,30.80
2018-03-20T18:57:17.081Z,30.90
2018-03-20T18:59:46.538Z,29.90
2018-03-20T19:02:15.941Z,30.40
2018-03-20T19:04:46.136Z,29.70
2018-03-20T19:07:16.487Z,29.60
2018-03-20T19:09:46.110Z,30.60
2018-03-20T19:12:16.571Z,31.00
2018-03-20T19:14:46.812Z,31.20
2018-03-20T19:17:16.142Z,31.20
2018-03-20T19:19:46.597Z,31.40
2018-03-20T19:22:16.097Z,31.40
2018-03-20T19:24:45.521Z,31.30
2018-03-20T19:27:54.824Z,31.60
2018-03-20T19:30:25.086Z,31.70
2018-03-20T19:32:54.839Z,31.60
2018-03-20T19:35:25.050Z,31.40
2018-03-20T19:37:54.690Z,31.60
2018-03-20T19:40:25.639Z,31.50
2018-03-20T19:42:55.387Z,31.70
2018-03-20T19:45:25.581Z,31.60
2018-03-20T19:48:04.531Z,31.60
2018-03-20T19:50:38.174Z,31.50
2018-03-20T19:53:18.159Z,31.50
2018-03-20T19:55:50.083Z,31.50
2018-03-20T19:58:21.158Z,31.50
2018-03-20T20:00:51.535Z,31.70
2018-03-20T20:03:23.303Z,32.00
2018-03-20T20:05:57.670Z,32.10
2018-03-20T20:08:28.230Z,32.00
2018-03-20T20:11:00.999Z,31.20
2018-03-20T20:13:30.927Z,31.50
2018-03-20T20:16:02.609Z,31.90
2018-03-20T20:18:33.380Z,31.80
2018-03-20T20:21:03.050Z,31.70
2018-03-20T20:23:35.663Z,31.40
2018-03-20T20:26:05.563Z,31.80
2018-03-20T20:28:36.042Z,31.00
2018-03-20T20:31:08.417Z,29.90
2018-03-20T20:33:38.366Z,29.40
2018-03-20T20:36:08.902Z,29.40
2018-03-20T20:38:39.665Z,29.20
2018-03-20T20:41:09.281Z,28.70
2018-03-20T20:43:39.097Z,28.20
2018-03-20T20:46:10.740Z,27.80
2018-03-20T20:48:40.511Z,28.50
2018-03-20T20:51:11.225Z,28.70
2018-03-20T20:53:41.671Z,28.80
2018-03-20T20:56:13.741Z,28.70
2018-03-20T20:58:43.445Z,28.80
2018-03-20T21:01:13.175Z,28.20
2018-03-20T21:03:44.387Z,27.90
2018-03-20T21:06:14.731Z,28.30
2018-03-20T21:08:44.417Z,28.20
2018-03-20T21:11:17.158Z,28.50
2018-03-20T21:13:46.853Z,28.40
2018-03-20T21:16:17.807Z,28.50
2018-03-20T21:18:47.596Z,27.40
2018-03-20T21:21:19.534Z,27.40
2018-03-20T21:23:49.219Z,27.60
2018-03-20T21:26:21.784Z,27.40
2018-03-20T21:28:52.184Z,27.90
2018-03-20T21:31:26.373Z,28.30
2018-03-20T21:33:57.293Z,28.10
2018-03-20T21:36:27.226Z,27.90
2018-03-20T21:38:57.048Z,27.50
2018-03-20T21:41:30.650Z,27.40
2018-03-20T21:44:00.458Z,27.50
2018-03-20T21:46:46.757Z,27.70
2018-03-20T21:49:31.692Z,27.50
2018-03-20T21:52:22.908Z,26.90
2018-03-20T21:55:08.038Z,26.80
2018-03-20T21:58:00.989Z,27.40
2018-03-20T22:00:32.531Z,27.30
2018-03-20T22:03:15.539Z,26.80
2018-03-20T22:05:45.270Z,26.70
2018-03-20T22:08:20.168Z,26.60
2018-03-20T22:10:49.821Z,26.40
2018-03-20T22:13:21.765Z,26.20
2018-03-20T22:15:54.101Z,26.10
2018-03-20T22:18:30.048Z,26.20
2018-03-20T22:20:59.966Z,26.30
2018-03-20T22:23:30.722Z,26.30
2018-03-20T22:26:00.483Z,26.20
2018-03-20T22:28:31.399Z,25.80
2018-03-20T22:31:01.062Z,25.60
2018-03-20T22:33:30.630Z,25.40
2018-03-20T22:36:00.932Z,25.10
2018-03-20T22:39:14.261Z,25.10
2018-03-20T22:41:43.886Z,25.20
2018-03-20T22:44:13.697Z,24.80
2018-03-20T22:46:43.201Z,24.70
2018-03-20T22:49:14.851Z,24.50
2018-03-20T22:51:44.437Z,24.40
2018-03-20T22:54:17.363Z,24.20
2018-03-20T22:56:46.668Z,24.10
2018-03-20T22:59:16.128Z,23.90
2018-03-20T23:01:45.659Z,23.80
2018-03-20T23:04:16.411Z,23.70
2018-03-20T23:06:47.707Z,23.60
2018-03-20T23:09:17.885Z,23.50
2018-03-20T23:11:47.323Z,23.40
2018-03-20T23:14:17.722Z,23.40
2018-03-20T23:16:47.124Z,23.30
2018-03-20T23:19:16.779Z,23.10
2018-03-20T23:21:46.246Z,23.00
2018-03-20T23:24:16.847Z,23.00
2018-03-20T23:26:46.654Z,22.90
2018-03-20T23:29:16.415Z,23.00
2018-03-20T23:31:55.741Z,22.90
2018-03-20T23:37:58.570Z,22.70
2018-03-20T23:40:28.455Z,22.70
2018-03-20T23:42:58.177Z,22.60
2018-03-20T23:45:27.927Z,22.50
2018-03-20T23:47:58.023Z,22.40
2018-03-20T23:50:27.641Z,22.20
2018-03-20T23:52:59.452Z,22.10
2018-03-20T23:55:29.028Z,22.00
2018-03-20T23:57:58.969Z,22.00
